Terminal Aerodrome Forecast
Issued by NWS

Home | Current Version | Previous Version | Text Only | Print | Product List | Glossary On
Versions: 1 2 3 4 5 6 7 8 9 10 11 12 13
000
FTUS46 KMFR 230539
TAFLMT
TAF
KLMT 230539Z 2306/2406 VRB03KT P6SM FEW250
     FM232300 31012KT P6SM FEW250
     FM240500 29005KT P6SM SKC=

USA.gov is the U.S. government's official web portal to all federal, state and local government web resources and services.